Urb Santa Maria Mayor, Puerto Rico
Current Conditions -  °F | °C
As of 6:04 AM on Saturday 29 Nov 2014 (Local Time) from TJNR Reporting Station
Overcast Overcast  
Wind Chill: 74°   Ceiling: 4000
Heat Index: 74°   Visibility: 10mi
Dew Point: 72°   Wind: 7mph
Humidity: 93%   Direction: 340°NNW
Pressure: 29.97"   Gusts: NA
Location:  18.1494°N, 65.8294°W
Report Text: TJNR 291004Z AUTO 34006KT 10SM SCT021 BKN040 OVC060 23/22 A2997 RMK AO2 T02330222 $
Loading
Personal Weather Stations






























Interactive Weather Map New forecast layout! Learn more

10-Day Weather Forecast

Advertisements
Track Severe Weather on mobile